sensor_id;sensor_type;location;lat;lon;timestamp;P1;durP1;ratioP1;P2;durP2;ratioP2
64210;SDS011;50528;48.514;14.394;2022-12-18T00:00:21;20.10;;;11.20;;
64210;SDS011;50528;48.514;14.394;2022-12-18T00:01:15;18.60;;;10.20;;
64210;SDS011;50528;48.514;14.394;2022-12-18T00:01:51;19.70;;;10.80;;
64210;SDS011;50528;48.514;14.394;2022-12-18T00:02:25;20.50;;;10.70;;
64210;SDS011;50528;48.514;14.394;2022-12-18T00:02:59;22.10;;;12.00;;
64210;SDS011;50528;48.514;14.394;2022-12-18T00:03:33;20.40;;;10.60;;
64210;SDS011;50528;48.514;14.394;2022-12-18T00:04:07;19.70;;;11.10;;
64210;SDS011;50528;48.514;14.394;2022-12-18T00:04:52;21.30;;;10.20;;
64210;SDS011;50528;48.514;14.394;2022-12-18T00:05:25;19.20;;;10.60;;
64210;SDS011;50528;48.514;14.394;2022-12-18T00:05:59;21.40;;;10.90;;
64210;SDS011;50528;48.514;14.394;2022-12-18T00:06:32;20.30;;;10.70;;
64210;SDS011;50528;48.514;14.394;2022-12-18T00:07:07;21.00;;;11.00;;
64210;SDS011;50528;48.514;14.394;2022-12-18T00:07:41;17.50;;;9.20;;
64210;SDS011;50528;48.514;14.394;2022-12-18T00:08:15;17.90;;;9.90;;
64210;SDS011;50528;48.514;14.394;2022-12-18T00:08:49;19.90;;;9.70;;
64210;SDS011;50528;48.514;14.394;2022-12-18T00:09:23;19.50;;;10.60;;
64210;SDS011;50528;48.514;14.394;2022-12-18T00:10:11;15.90;;;9.10;;
64210;SDS011;50528;48.514;14.394;2022-12-18T00:10:47;17.30;;;9.30;;
64210;SDS011;50528;48.514;14.394;2022-12-18T00:11:43;18.00;;;9.60;;
64210;SDS011;50528;48.514;14.394;2022-12-18T00:12:16;17.60;;;8.80;;
64210;SDS011;50528;48.514;14.394;2022-12-18T00:12:53;18.40;;;10.10;;
64210;SDS011;50528;48.514;14.394;2022-12-18T00:13:27;17.00;;;9.30;;
64210;SDS011;50528;48.514;14.394;2022-12-18T00:14:03;16.70;;;9.20;;
64210;SDS011;50528;48.514;14.394;2022-12-18T00:14:38;17.20;;;9.60;;
64210;SDS011;50528;48.514;14.394;2022-12-18T00:15:13;18.20;;;10.20;;
64210;SDS011;50528;48.514;14.394;2022-12-18T00:15:47;18.60;;;9.80;;
64210;SDS011;50528;48.514;14.394;2022-12-18T00:16:22;20.60;;;10.10;;
64210;SDS011;50528;48.514;14.394;2022-12-18T00:16:56;17.10;;;9.80;;
64210;SDS011;50528;48.514;14.394;2022-12-18T00:17:33;18.90;;;10.00;;
64210;SDS011;50528;48.514;14.394;2022-12-18T00:18:31;19.00;;;9.30;;
64210;SDS011;50528;48.514;14.394;2022-12-18T00:19:05;17.20;;;9.50;;
64210;SDS011;50528;48.514;14.394;2022-12-18T00:19:40;17.50;;;10.00;;
64210;SDS011;50528;48.514;14.394;2022-12-18T00:20:16;16.80;;;10.40;;
64210;SDS011;50528;48.514;14.394;2022-12-18T00:20:57;16.90;;;9.80;;
64210;SDS011;50528;48.514;14.394;2022-12-18T00:21:32;16.40;;;9.30;;
64210;SDS011;50528;48.514;14.394;2022-12-18T00:22:06;16.70;;;9.80;;
64210;SDS011;50528;48.514;14.394;2022-12-18T00:22:39;16.00;;;8.90;;
64210;SDS011;50528;48.514;14.394;2022-12-18T00:23:13;18.60;;;9.60;;
64210;SDS011;50528;48.514;14.394;2022-12-18T00:23:50;17.70;;;9.70;;
64210;SDS011;50528;48.514;14.394;2022-12-18T00:24:24;18.50;;;9.80;;
64210;SDS011;50528;48.514;14.394;2022-12-18T00:24:58;16.80;;;9.70;;
64210;SDS011;50528;48.514;14.394;2022-12-18T00:25:34;17.10;;;9.50;;
64210;SDS011;50528;48.514;14.394;2022-12-18T00:26:20;19.20;;;9.60;;
64210;SDS011;50528;48.514;14.394;2022-12-18T00:26:56;18.40;;;9.50;;
64210;SDS011;50528;48.514;14.394;2022-12-18T00:27:30;18.20;;;10.10;;
64210;SDS011;50528;48.514;14.394;2022-12-18T00:28:04;17.70;;;9.90;;
64210;SDS011;50528;48.514;14.394;2022-12-18T00:28:37;19.50;;;10.10;;
64210;SDS011;50528;48.514;14.394;2022-12-18T00:29:12;16.80;;;9.90;;
64210;SDS011;50528;48.514;14.394;2022-12-18T00:29:48;20.10;;;10.00;;
64210;SDS011;50528;48.514;14.394;2022-12-18T00:30:23;17.60;;;10.10;;
64210;SDS011;50528;48.514;14.394;2022-12-18T00:31:02;19.30;;;9.90;;
64210;SDS011;50528;48.514;14.394;2022-12-18T00:31:38;18.00;;;9.60;;
64210;SDS011;50528;48.514;14.394;2022-12-18T00:32:11;17.50;;;9.50;;
64210;SDS011;50528;48.514;14.394;2022-12-18T00:32:45;20.70;;;10.20;;
64210;SDS011;50528;48.514;14.394;2022-12-18T00:33:19;20.00;;;10.00;;
64210;SDS011;50528;48.514;14.394;2022-12-18T00:33:55;18.70;;;10.30;;
64210;SDS011;50528;48.514;14.394;2022-12-18T00:34:30;16.80;;;9.40;;
64210;SDS011;50528;48.514;14.394;2022-12-18T00:35:04;16.70;;;9.40;;
64210;SDS011;50528;48.514;14.394;2022-12-18T00:35:39;18.00;;;10.10;;
64210;SDS011;50528;48.514;14.394;2022-12-18T00:36:13;16.60;;;9.70;;
64210;SDS011;50528;48.514;14.394;2022-12-18T00:36:49;17.50;;;9.80;;
64210;SDS011;50528;48.514;14.394;2022-12-18T00:37:22;17.10;;;9.70;;
64210;SDS011;50528;48.514;14.394;2022-12-18T00:37:56;18.40;;;10.40;;
64210;SDS011;50528;48.514;14.394;2022-12-18T00:38:29;18.70;;;10.00;;
64210;SDS011;50528;48.514;14.394;2022-12-18T00:39:04;18.90;;;9.90;;
64210;SDS011;50528;48.514;14.394;2022-12-18T00:39:38;19.70;;;10.10;;
64210;SDS011;50528;48.514;14.394;2022-12-18T00:40:11;19.20;;;10.10;;
64210;SDS011;50528;48.514;14.394;2022-12-18T00:40:45;17.90;;;9.90;;
64210;SDS011;50528;48.514;14.394;2022-12-18T00:41:18;17.60;;;10.10;;
64210;SDS011;50528;48.514;14.394;2022-12-18T00:42:10;19.20;;;9.00;;
64210;SDS011;50528;48.514;14.394;2022-12-18T00:43:02;18.30;;;8.80;;
64210;SDS011;50528;48.514;14.394;2022-12-18T00:43:36;19.20;;;9.20;;
64210;SDS011;50528;48.514;14.394;2022-12-18T00:44:12;17.10;;;8.90;;
64210;SDS011;50528;48.514;14.394;2022-12-18T00:57:39;14.50;;;5.90;;
64210;SDS011;50528;48.514;14.394;2022-12-18T00:58:23;18.20;;;7.60;;
64210;SDS011;50528;48.514;14.394;2022-12-18T00:59:22;19.00;;;7.20;;
64210;SDS011;50528;48.514;14.394;2022-12-18T01:00:18;18.10;;;7.80;;
64210;SDS011;50528;48.514;14.394;2022-12-18T01:01:19;17.60;;;7.90;;
64210;SDS011;50528;48.514;14.394;2022-12-18T01:02:19;20.90;;;8.50;;
64210;SDS011;50528;48.514;14.394;2022-12-18T01:04:48;21.70;;;7.40;;
64210;SDS011;50528;48.514;14.394;2022-12-18T01:05:54;18.90;;;7.00;;
64210;SDS011;50528;48.514;14.394;2022-12-18T01:07:17;19.40;;;7.10;;
64210;SDS011;50528;48.514;14.394;2022-12-18T01:08:27;19.60;;;6.30;;
64210;SDS011;50528;48.514;14.394;2022-12-18T01:09:22;17.70;;;7.90;;
64210;SDS011;50528;48.514;14.394;2022-12-18T01:10:22;20.80;;;8.30;;
64210;SDS011;50528;48.514;14.394;2022-12-18T01:11:20;22.70;;;8.40;;
64210;SDS011;50528;48.514;14.394;2022-12-18T01:12:20;21.10;;;9.10;;
64210;SDS011;50528;48.514;14.394;2022-12-18T01:13:21;23.00;;;8.50;;
64210;SDS011;50528;48.514;14.394;2022-12-18T01:14:00;21.80;;;9.00;;
64210;SDS011;50528;48.514;14.394;2022-12-18T01:14:57;23.40;;;8.80;;
64210;SDS011;50528;48.514;14.394;2022-12-18T01:15:39;26.70;;;9.40;;
64210;SDS011;50528;48.514;14.394;2022-12-18T01:16:19;22.80;;;9.30;;
64210;SDS011;50528;48.514;14.394;2022-12-18T01:16:53;23.40;;;9.90;;
64210;SDS011;50528;48.514;14.394;2022-12-18T01:17:59;20.30;;;9.00;;
64210;SDS011;50528;48.514;14.394;2022-12-18T01:18:45;23.40;;;9.90;;
64210;SDS011;50528;48.514;14.394;2022-12-18T01:19:19;23.90;;;10.70;;
64210;SDS011;50528;48.514;14.394;2022-12-18T01:20:31;21.00;;;8.70;;
64210;SDS011;50528;48.514;14.394;2022-12-18T01:21:19;21.20;;;9.10;;
64210;SDS011;50528;48.514;14.394;2022-12-18T01:22:06;23.70;;;9.70;;
64210;SDS011;50528;48.514;14.394;2022-12-18T01:22:51;22.00;;;9.90;;
64210;SDS011;50528;48.514;14.394;2022-12-18T01:23:28;21.60;;;9.80;;
64210;SDS011;50528;48.514;14.394;2022-12-18T01:24:18;20.80;;;7.70;;
64210;SDS011;50528;48.514;14.394;2022-12-18T01:24:57;21.60;;;9.20;;
64210;SDS011;50528;48.514;14.394;2022-12-18T01:25:35;24.30;;;9.70;;
64210;SDS011;50528;48.514;14.394;2022-12-18T01:26:25;19.90;;;9.50;;
64210;SDS011;50528;48.514;14.394;2022-12-18T01:27:22;22.40;;;8.80;;
64210;SDS011;50528;48.514;14.394;2022-12-18T01:27:57;17.40;;;8.50;;
64210;SDS011;50528;48.514;14.394;2022-12-18T01:28:33;18.10;;;9.40;;
64210;SDS011;50528;48.514;14.394;2022-12-18T01:29:18;22.50;;;9.40;;
64210;SDS011;50528;48.514;14.394;2022-12-18T01:30:19;19.20;;;9.00;;
64210;SDS011;50528;48.514;14.394;2022-12-18T01:30:53;22.60;;;9.40;;
64210;SDS011;50528;48.514;14.394;2022-12-18T01:31:34;19.00;;;9.60;;
64210;SDS011;50528;48.514;14.394;2022-12-18T01:32:11;26.30;;;10.40;;
64210;SDS011;50528;48.514;14.394;2022-12-18T01:32:46;23.00;;;10.40;;
64210;SDS011;50528;48.514;14.394;2022-12-18T01:33:28;25.50;;;10.40;;
64210;SDS011;50528;48.514;14.394;2022-12-18T01:34:10;22.00;;;10.30;;
64210;SDS011;50528;48.514;14.394;2022-12-18T01:34:44;20.90;;;10.00;;
64210;SDS011;50528;48.514;14.394;2022-12-18T01:35:23;23.60;;;10.80;;
64210;SDS011;50528;48.514;14.394;2022-12-18T01:35:58;27.80;;;10.20;;
64210;SDS011;50528;48.514;14.394;2022-12-18T01:36:33;24.40;;;10.40;;
64210;SDS011;50528;48.514;14.394;2022-12-18T01:37:13;26.50;;;10.20;;
64210;SDS011;50528;48.514;14.394;2022-12-18T01:37:53;22.80;;;9.60;;
64210;SDS011;50528;48.514;14.394;2022-12-18T01:38:33;23.30;;;10.60;;
64210;SDS011;50528;48.514;14.394;2022-12-18T01:39:13;22.50;;;10.10;;
64210;SDS011;50528;48.514;14.394;2022-12-18T01:39:52;25.10;;;10.70;;
64210;SDS011;50528;48.514;14.394;2022-12-18T01:40:30;21.50;;;9.60;;
64210;SDS011;50528;48.514;14.394;2022-12-18T01:41:10;23.10;;;9.70;;
64210;SDS011;50528;48.514;14.394;2022-12-18T01:41:58;22.80;;;9.80;;
64210;SDS011;50528;48.514;14.394;2022-12-18T01:42:44;17.70;;;8.80;;
64210;SDS011;50528;48.514;14.394;2022-12-18T01:43:43;21.00;;;9.80;;
64210;SDS011;50528;48.514;14.394;2022-12-18T01:45:25;24.30;;;9.10;;
64210;SDS011;50528;48.514;14.394;2022-12-18T01:46:01;21.60;;;10.00;;
64210;SDS011;50528;48.514;14.394;2022-12-18T01:46:42;23.30;;;9.80;;
64210;SDS011;50528;48.514;14.394;2022-12-18T01:48:18;19.20;;;9.10;;
64210;SDS011;50528;48.514;14.394;2022-12-18T01:48:57;23.10;;;9.60;;
64210;SDS011;50528;48.514;14.394;2022-12-18T01:49:46;19.70;;;8.30;;
64210;SDS011;50528;48.514;14.394;2022-12-18T01:51:52;19.20;;;7.80;;
64210;SDS011;50528;48.514;14.394;2022-12-18T01:52:31;22.30;;;9.70;;
64210;SDS011;50528;48.514;14.394;2022-12-18T01:53:36;22.80;;;10.10;;
64210;SDS011;50528;48.514;14.394;2022-12-18T01:54:22;17.90;;;8.40;;
64210;SDS011;50528;48.514;14.394;2022-12-18T01:54:57;20.10;;;8.40;;
64210;SDS011;50528;48.514;14.394;2022-12-18T01:55:57;19.00;;;8.20;;
64210;SDS011;50528;48.514;14.394;2022-12-18T01:56:50;17.60;;;8.30;;
64210;SDS011;50528;48.514;14.394;2022-12-18T01:57:41;21.50;;;8.80;;
64210;SDS011;50528;48.514;14.394;2022-12-18T01:58:46;21.90;;;9.70;;
64210;SDS011;50528;48.514;14.394;2022-12-18T01:59:49;21.00;;;8.40;;
64210;SDS011;50528;48.514;14.394;2022-12-18T02:00:48;19.00;;;8.40;;
64210;SDS011;50528;48.514;14.394;2022-12-18T02:01:35;21.90;;;10.10;;
64210;SDS011;50528;48.514;14.394;2022-12-18T02:02:12;21.60;;;9.20;;
64210;SDS011;50528;48.514;14.394;2022-12-18T02:03:03;26.00;;;9.30;;
64210;SDS011;50528;48.514;14.394;2022-12-18T02:04:18;25.30;;;8.70;;
64210;SDS011;50528;48.514;14.394;2022-12-18T02:04:54;22.60;;;8.20;;
64210;SDS011;50528;48.514;14.394;2022-12-18T02:06:22;24.60;;;9.10;;
64210;SDS011;50528;48.514;14.394;2022-12-18T02:08:19;20.70;;;9.00;;
64210;SDS011;50528;48.514;14.394;2022-12-18T02:08:31;20.20;;;8.60;;
64210;SDS011;50528;48.514;14.394;2022-12-18T02:09:19;21.60;;;8.70;;
64210;SDS011;50528;48.514;14.394;2022-12-18T02:11:59;18.60;;;7.50;;
64210;SDS011;50528;48.514;14.394;2022-12-18T02:14:28;16.00;;;7.00;;
64210;SDS011;50528;48.514;14.394;2022-12-18T02:16:13;20.60;;;8.40;;
64210;SDS011;50528;48.514;14.394;2022-12-18T02:18:11;18.80;;;7.70;;
64210;SDS011;50528;48.514;14.394;2022-12-18T02:18:56;19.00;;;8.10;;
64210;SDS011;50528;48.514;14.394;2022-12-18T02:21:00;18.80;;;8.10;;
64210;SDS011;50528;48.514;14.394;2022-12-18T02:24:18;17.10;;;7.70;;
64210;SDS011;50528;48.514;14.394;2022-12-18T02:25:20;22.10;;;7.10;;
64210;SDS011;50528;48.514;14.394;2022-12-18T02:26:36;16.10;;;7.00;;
64210;SDS011;50528;48.514;14.394;2022-12-18T02:27:17;18.20;;;6.90;;
64210;SDS011;50528;48.514;14.394;2022-12-18T02:27:54;19.60;;;8.60;;
64210;SDS011;50528;48.514;14.394;2022-12-18T02:28:45;18.90;;;8.70;;
64210;SDS011;50528;48.514;14.394;2022-12-18T02:29:39;16.30;;;7.70;;
64210;SDS011;50528;48.514;14.394;2022-12-18T02:30:23;18.30;;;8.20;;
64210;SDS011;50528;48.514;14.394;2022-12-18T02:31:01;20.30;;;8.80;;
64210;SDS011;50528;48.514;14.394;2022-12-18T02:31:54;19.50;;;8.30;;
64210;SDS011;50528;48.514;14.394;2022-12-18T02:32:45;17.60;;;8.10;;
64210;SDS011;50528;48.514;14.394;2022-12-18T02:33:24;16.80;;;8.20;;
64210;SDS011;50528;48.514;14.394;2022-12-18T02:34:05;17.30;;;8.20;;
64210;SDS011;50528;48.514;14.394;2022-12-18T02:34:49;17.80;;;8.80;;
64210;SDS011;50528;48.514;14.394;2022-12-18T02:35:25;15.90;;;8.50;;
64210;SDS011;50528;48.514;14.394;2022-12-18T02:36:16;17.40;;;8.20;;
64210;SDS011;50528;48.514;14.394;2022-12-18T02:36:52;18.40;;;8.40;;
64210;SDS011;50528;48.514;14.394;2022-12-18T02:37:32;19.10;;;9.10;;
64210;SDS011;50528;48.514;14.394;2022-12-18T02:38:12;19.30;;;9.20;;
64210;SDS011;50528;48.514;14.394;2022-12-18T02:38:53;17.30;;;8.20;;
64210;SDS011;50528;48.514;14.394;2022-12-18T02:39:34;17.70;;;8.50;;
64210;SDS011;50528;48.514;14.394;2022-12-18T02:40:20;18.20;;;8.30;;
64210;SDS011;50528;48.514;14.394;2022-12-18T02:41:08;17.20;;;8.30;;
64210;SDS011;50528;48.514;14.394;2022-12-18T02:41:42;16.80;;;8.30;;
64210;SDS011;50528;48.514;14.394;2022-12-18T02:42:17;18.70;;;9.20;;
64210;SDS011;50528;48.514;14.394;2022-12-18T02:42:55;17.40;;;8.50;;
64210;SDS011;50528;48.514;14.394;2022-12-18T02:44:46;16.20;;;6.60;;
64210;SDS011;50528;48.514;14.394;2022-12-18T02:45:24;13.60;;;6.20;;
64210;SDS011;50528;48.514;14.394;2022-12-18T02:46:20;17.40;;;7.40;;
64210;SDS011;50528;48.514;14.394;2022-12-18T02:46:59;13.50;;;6.70;;
64210;SDS011;50528;48.514;14.394;2022-12-18T02:47:43;15.70;;;7.50;;
64210;SDS011;50528;48.514;14.394;2022-12-18T02:48:24;15.20;;;7.70;;
64210;SDS011;50528;48.514;14.394;2022-12-18T02:51:46;15.80;;;7.10;;
64210;SDS011;50528;48.514;14.394;2022-12-18T02:53:28;17.20;;;8.00;;
64210;SDS011;50528;48.514;14.394;2022-12-18T02:55:28;14.50;;;6.80;;
64210;SDS011;50528;48.514;14.394;2022-12-18T02:56:17;18.20;;;7.60;;
64210;SDS011;50528;48.514;14.394;2022-12-18T02:56:55;18.70;;;7.80;;
64210;SDS011;50528;48.514;14.394;2022-12-18T02:59:09;18.60;;;8.50;;
64210;SDS011;50528;48.514;14.394;2022-12-18T03:01:30;19.60;;;9.50;;
64210;SDS011;50528;48.514;14.394;2022-12-18T03:02:21;22.40;;;9.00;;
64210;SDS011;50528;48.514;14.394;2022-12-18T03:03:06;20.40;;;7.90;;
64210;SDS011;50528;48.514;14.394;2022-12-18T03:03:52;15.90;;;7.90;;
64210;SDS011;50528;48.514;14.394;2022-12-18T03:04:36;18.40;;;8.30;;
64210;SDS011;50528;48.514;14.394;2022-12-18T03:05:17;21.60;;;8.90;;
64210;SDS011;50528;48.514;14.394;2022-12-18T03:06:00;20.00;;;9.30;;
64210;SDS011;50528;48.514;14.394;2022-12-18T03:06:39;17.50;;;8.00;;
64210;SDS011;50528;48.514;14.394;2022-12-18T03:07:21;19.40;;;8.80;;
64210;SDS011;50528;48.514;14.394;2022-12-18T03:08:46;17.30;;;7.10;;
64210;SDS011;50528;48.514;14.394;2022-12-18T03:09:33;17.60;;;8.10;;
64210;SDS011;50528;48.514;14.394;2022-12-18T03:10:11;17.10;;;7.90;;
64210;SDS011;50528;48.514;14.394;2022-12-18T03:10:58;17.10;;;8.50;;
64210;SDS011;50528;48.514;14.394;2022-12-18T03:11:34;17.50;;;8.40;;
64210;SDS011;50528;48.514;14.394;2022-12-18T03:12:32;18.10;;;7.80;;
64210;SDS011;50528;48.514;14.394;2022-12-18T03:13:09;16.70;;;8.00;;
64210;SDS011;50528;48.514;14.394;2022-12-18T03:14:30;15.90;;;6.60;;
64210;SDS011;50528;48.514;14.394;2022-12-18T03:15:20;17.30;;;8.00;;
64210;SDS011;50528;48.514;14.394;2022-12-18T03:16:03;18.90;;;8.20;;
64210;SDS011;50528;48.514;14.394;2022-12-18T03:16:40;17.60;;;8.20;;
64210;SDS011;50528;48.514;14.394;2022-12-18T03:17:16;17.60;;;8.00;;
64210;SDS011;50528;48.514;14.394;2022-12-18T03:17:59;16.80;;;8.20;;
64210;SDS011;50528;48.514;14.394;2022-12-18T03:18:38;17.40;;;8.60;;
64210;SDS011;50528;48.514;14.394;2022-12-18T03:19:19;18.20;;;8.70;;
64210;SDS011;50528;48.514;14.394;2022-12-18T03:19:58;19.20;;;8.70;;
64210;SDS011;50528;48.514;14.394;2022-12-18T03:20:37;17.60;;;8.90;;
64210;SDS011;50528;48.514;14.394;2022-12-18T03:21:18;17.30;;;8.70;;
64210;SDS011;50528;48.514;14.394;2022-12-18T03:21:56;16.40;;;8.30;;
64210;SDS011;50528;48.514;14.394;2022-12-18T03:22:32;17.10;;;8.20;;
64210;SDS011;50528;48.514;14.394;2022-12-18T03:23:09;18.80;;;9.30;;
64210;SDS011;50528;48.514;14.394;2022-12-18T03:23:52;18.20;;;8.40;;
64210;SDS011;50528;48.514;14.394;2022-12-18T03:24:29;20.70;;;8.90;;
64210;SDS011;50528;48.514;14.394;2022-12-18T03:25:06;17.60;;;8.90;;
64210;SDS011;50528;48.514;14.394;2022-12-18T03:25:44;18.10;;;9.10;;
64210;SDS011;50528;48.514;14.394;2022-12-18T03:26:20;20.50;;;9.10;;
64210;SDS011;50528;48.514;14.394;2022-12-18T03:27:01;19.20;;;9.50;;
64210;SDS011;50528;48.514;14.394;2022-12-18T03:27:42;17.20;;;8.00;;
64210;SDS011;50528;48.514;14.394;2022-12-18T03:28:21;17.60;;;8.50;;
64210;SDS011;50528;48.514;14.394;2022-12-18T03:29:02;18.30;;;9.30;;
64210;SDS011;50528;48.514;14.394;2022-12-18T03:29:42;15.80;;;7.90;;
64210;SDS011;50528;48.514;14.394;2022-12-18T03:30:20;16.50;;;9.20;;
64210;SDS011;50528;48.514;14.394;2022-12-18T03:30:55;18.30;;;8.80;;
64210;SDS011;50528;48.514;14.394;2022-12-18T03:31:33;20.40;;;9.30;;
64210;SDS011;50528;48.514;14.394;2022-12-18T03:33:21;18.70;;;8.30;;
64210;SDS011;50528;48.514;14.394;2022-12-18T03:34:09;18.30;;;8.10;;
64210;SDS011;50528;48.514;14.394;2022-12-18T03:34:50;15.90;;;7.80;;
64210;SDS011;50528;48.514;14.394;2022-12-18T03:35:29;20.70;;;8.90;;
64210;SDS011;50528;48.514;14.394;2022-12-18T03:36:07;18.60;;;9.00;;
64210;SDS011;50528;48.514;14.394;2022-12-18T03:36:40;20.20;;;9.10;;
64210;SDS011;50528;48.514;14.394;2022-12-18T03:37:14;21.10;;;9.80;;
64210;SDS011;50528;48.514;14.394;2022-12-18T03:37:48;20.60;;;9.70;;
64210;SDS011;50528;48.514;14.394;2022-12-18T03:38:22;20.20;;;9.40;;
64210;SDS011;50528;48.514;14.394;2022-12-18T03:38:58;19.50;;;9.90;;
64210;SDS011;50528;48.514;14.394;2022-12-18T03:39:33;19.20;;;9.50;;
64210;SDS011;50528;48.514;14.394;2022-12-18T03:40:09;18.30;;;8.90;;
64210;SDS011;50528;48.514;14.394;2022-12-18T03:40:59;19.60;;;9.50;;
64210;SDS011;50528;48.514;14.394;2022-12-18T03:42:44;13.50;;;5.90;;
64210;SDS011;50528;48.514;14.394;2022-12-18T03:43:22;17.80;;;7.90;;
64210;SDS011;50528;48.514;14.394;2022-12-18T03:45:25;14.30;;;7.10;;
64210;SDS011;50528;48.514;14.394;2022-12-18T03:46:14;17.90;;;8.90;;
64210;SDS011;50528;48.514;14.394;2022-12-18T03:48:52;17.50;;;8.00;;
64210;SDS011;50528;48.514;14.394;2022-12-18T03:50:16;13.40;;;6.90;;
64210;SDS011;50528;48.514;14.394;2022-12-18T03:52:17;17.10;;;7.20;;
64210;SDS011;50528;48.514;14.394;2022-12-18T03:53:04;15.70;;;7.30;;
64210;SDS011;50528;48.514;14.394;2022-12-18T03:53:46;18.00;;;8.30;;
64210;SDS011;50528;48.514;14.394;2022-12-18T03:54:22;16.10;;;8.10;;
64210;SDS011;50528;48.514;14.394;2022-12-18T03:55:01;17.60;;;8.30;;
64210;SDS011;50528;48.514;14.394;2022-12-18T03:55:39;17.10;;;8.50;;
64210;SDS011;50528;48.514;14.394;2022-12-18T03:56:14;20.50;;;9.20;;
64210;SDS011;50528;48.514;14.394;2022-12-18T03:56:51;14.50;;;8.20;;
64210;SDS011;50528;48.514;14.394;2022-12-18T03:57:33;17.70;;;8.60;;
64210;SDS011;50528;48.514;14.394;2022-12-18T03:58:08;19.10;;;9.00;;
64210;SDS011;50528;48.514;14.394;2022-12-18T03:58:55;17.20;;;8.20;;
64210;SDS011;50528;48.514;14.394;2022-12-18T03:59:32;17.90;;;8.10;;
64210;SDS011;50528;48.514;14.394;2022-12-18T04:00:09;15.90;;;8.30;;
64210;SDS011;50528;48.514;14.394;2022-12-18T04:01:06;16.40;;;7.40;;
64210;SDS011;50528;48.514;14.394;2022-12-18T04:01:42;17.30;;;8.80;;
64210;SDS011;50528;48.514;14.394;2022-12-18T04:02:21;17.80;;;8.50;;
64210;SDS011;50528;48.514;14.394;2022-12-18T04:02:57;16.10;;;8.60;;
64210;SDS011;50528;48.514;14.394;2022-12-18T04:03:41;18.40;;;8.90;;
64210;SDS011;50528;48.514;14.394;2022-12-18T04:04:17;18.30;;;9.20;;
64210;SDS011;50528;48.514;14.394;2022-12-18T04:04:53;17.20;;;8.80;;
64210;SDS011;50528;48.514;14.394;2022-12-18T04:05:29;17.20;;;8.70;;
64210;SDS011;50528;48.514;14.394;2022-12-18T04:06:05;15.90;;;8.30;;
64210;SDS011;50528;48.514;14.394;2022-12-18T04:06:40;18.90;;;8.70;;
64210;SDS011;50528;48.514;14.394;2022-12-18T04:07:15;16.30;;;8.50;;
64210;SDS011;50528;48.514;14.394;2022-12-18T04:07:50;18.80;;;8.80;;
64210;SDS011;50528;48.514;14.394;2022-12-18T04:08:25;16.90;;;8.60;;
64210;SDS011;50528;48.514;14.394;2022-12-18T04:09:05;17.10;;;8.80;;
64210;SDS011;50528;48.514;14.394;2022-12-18T04:09:43;17.90;;;8.60;;
64210;SDS011;50528;48.514;14.394;2022-12-18T04:10:18;15.40;;;7.60;;
64210;SDS011;50528;48.514;14.394;2022-12-18T04:10:52;16.70;;;9.20;;
64210;SDS011;50528;48.514;14.394;2022-12-18T04:11:26;17.20;;;8.60;;
64210;SDS011;50528;48.514;14.394;2022-12-18T04:11:59;17.50;;;9.30;;
64210;SDS011;50528;48.514;14.394;2022-12-18T04:12:33;17.30;;;9.40;;
64210;SDS011;50528;48.514;14.394;2022-12-18T04:13:07;15.20;;;8.30;;
64210;SDS011;50528;48.514;14.394;2022-12-18T04:13:41;18.30;;;8.60;;
64210;SDS011;50528;48.514;14.394;2022-12-18T04:14:21;15.90;;;8.40;;
64210;SDS011;50528;48.514;14.394;2022-12-18T04:14:57;16.30;;;8.40;;
64210;SDS011;50528;48.514;14.394;2022-12-18T04:15:31;17.20;;;9.20;;
64210;SDS011;50528;48.514;14.394;2022-12-18T04:16:07;18.30;;;8.90;;
64210;SDS011;50528;48.514;14.394;2022-12-18T04:16:44;16.50;;;8.50;;
64210;SDS011;50528;48.514;14.394;2022-12-18T04:17:19;16.10;;;8.70;;
64210;SDS011;50528;48.514;14.394;2022-12-18T04:17:53;17.50;;;8.30;;
64210;SDS011;50528;48.514;14.394;2022-12-18T04:18:28;16.90;;;8.80;;
64210;SDS011;50528;48.514;14.394;2022-12-18T04:19:02;17.60;;;9.50;;
64210;SDS011;50528;48.514;14.394;2022-12-18T04:19:40;14.90;;;8.10;;
64210;SDS011;50528;48.514;14.394;2022-12-18T04:20:15;16.70;;;8.70;;
64210;SDS011;50528;48.514;14.394;2022-12-18T04:20:49;16.10;;;8.30;;
64210;SDS011;50528;48.514;14.394;2022-12-18T04:21:23;15.90;;;8.60;;
64210;SDS011;50528;48.514;14.394;2022-12-18T04:21:57;18.00;;;9.20;;
64210;SDS011;50528;48.514;14.394;2022-12-18T04:22:31;16.30;;;8.50;;
64210;SDS011;50528;48.514;14.394;2022-12-18T04:23:05;15.80;;;8.90;;
64210;SDS011;50528;48.514;14.394;2022-12-18T04:23:39;16.70;;;8.30;;
64210;SDS011;50528;48.514;14.394;2022-12-18T04:24:13;17.10;;;8.70;;
64210;SDS011;50528;48.514;14.394;2022-12-18T04:24:51;16.50;;;8.70;;
64210;SDS011;50528;48.514;14.394;2022-12-18T04:25:32;17.00;;;8.30;;
64210;SDS011;50528;48.514;14.394;2022-12-18T04:26:13;17.10;;;8.40;;
64210;SDS011;50528;48.514;14.394;2022-12-18T04:26:57;15.50;;;8.20;;
64210;SDS011;50528;48.514;14.394;2022-12-18T04:27:36;14.90;;;7.90;;
64210;SDS011;50528;48.514;14.394;2022-12-18T04:28:09;17.60;;;8.90;;
64210;SDS011;50528;48.514;14.394;2022-12-18T04:28:43;17.50;;;8.50;;
64210;SDS011;50528;48.514;14.394;2022-12-18T04:29:17;19.50;;;9.00;;
64210;SDS011;50528;48.514;14.394;2022-12-18T04:29:51;18.40;;;8.90;;
64210;SDS011;50528;48.514;14.394;2022-12-18T04:30:24;16.30;;;8.60;;
64210;SDS011;50528;48.514;14.394;2022-12-18T04:30:58;15.80;;;8.30;;
64210;SDS011;50528;48.514;14.394;2022-12-18T04:31:32;17.30;;;8.90;;
64210;SDS011;50528;48.514;14.394;2022-12-18T04:32:07;15.70;;;8.30;;
64210;SDS011;50528;48.514;14.394;2022-12-18T04:32:41;16.20;;;8.00;;
64210;SDS011;50528;48.514;14.394;2022-12-18T04:33:22;15.30;;;7.90;;
64210;SDS011;50528;48.514;14.394;2022-12-18T04:33:56;16.30;;;8.30;;
64210;SDS011;50528;48.514;14.394;2022-12-18T04:34:30;18.20;;;8.50;;
64210;SDS011;50528;48.514;14.394;2022-12-18T04:35:03;16.10;;;8.00;;
64210;SDS011;50528;48.514;14.394;2022-12-18T04:35:40;16.40;;;8.50;;
64210;SDS011;50528;48.514;14.394;2022-12-18T04:36:14;15.30;;;8.30;;
64210;SDS011;50528;48.514;14.394;2022-12-18T04:36:48;18.40;;;8.00;;
64210;SDS011;50528;48.514;14.394;2022-12-18T04:37:22;16.10;;;8.30;;
64210;SDS011;50528;48.514;14.394;2022-12-18T04:37:55;16.00;;;7.90;;
64210;SDS011;50528;48.514;14.394;2022-12-18T04:38:29;16.90;;;8.80;;
64210;SDS011;50528;48.514;14.394;2022-12-18T04:39:07;17.80;;;8.40;;
64210;SDS011;50528;48.514;14.394;2022-12-18T04:39:41;17.10;;;8.40;;
64210;SDS011;50528;48.514;14.394;2022-12-18T04:40:20;17.30;;;8.60;;
64210;SDS011;50528;48.514;14.394;2022-12-18T04:40:53;15.70;;;8.40;;
64210;SDS011;50528;48.514;14.394;2022-12-18T04:41:30;18.00;;;8.80;;
64210;SDS011;50528;48.514;14.394;2022-12-18T04:42:04;16.30;;;8.30;;
64210;SDS011;50528;48.514;14.394;2022-12-18T04:42:38;17.50;;;8.80;;
64210;SDS011;50528;48.514;14.394;2022-12-18T04:43:13;18.10;;;9.00;;
64210;SDS011;50528;48.514;14.394;2022-12-18T04:43:46;15.10;;;8.30;;
64210;SDS011;50528;48.514;14.394;2022-12-18T04:44:23;16.80;;;9.30;;
64210;SDS011;50528;48.514;14.394;2022-12-18T04:44:56;16.20;;;8.50;;
64210;SDS011;50528;48.514;14.394;2022-12-18T04:45:30;15.30;;;8.30;;